sensor_id;sensor_type;location;lat;lon;timestamp;pressure;altitude;pressure_sealevel;temperature;humidity
51526;BME280;37611;51.794;21.590;2022-09-03T00:00:13;100512.69;;;9.34;77.20
51526;BME280;37611;51.794;21.590;2022-09-03T00:09:27;100512.77;;;9.19;77.08
51526;BME280;37611;51.794;21.590;2022-09-03T00:13:58;100509.86;;;9.18;77.91
51526;BME280;37611;51.794;21.590;2022-09-03T00:18:16;100511.98;;;9.22;78.33
51526;BME280;37611;51.794;21.590;2022-09-03T00:22:31;100510.89;;;9.26;78.27
51526;BME280;37611;51.794;21.590;2022-09-03T00:26:36;100510.92;;;9.30;77.94
51526;BME280;37611;51.794;21.590;2022-09-03T00:30:38;100507.28;;;9.32;77.68
51526;BME280;37611;51.794;21.590;2022-09-03T00:34:46;100504.99;;;9.32;77.40
51526;BME280;37611;51.794;21.590;2022-09-03T00:38:50;100501.30;;;9.32;77.16
51526;BME280;37611;51.794;21.590;2022-09-03T00:43:41;100504.79;;;9.30;77.50
51526;BME280;37611;51.794;21.590;2022-09-03T00:47:56;100501.45;;;9.31;77.41
51526;BME280;37611;51.794;21.590;2022-09-03T00:52:10;100500.17;;;9.33;77.68
51526;BME280;37611;51.794;21.590;2022-09-03T01:00:20;100506.48;;;9.37;78.51
51526;BME280;37611;51.794;21.590;2022-09-03T01:04:33;100515.71;;;9.31;78.33
51526;BME280;37611;51.794;21.590;2022-09-03T01:13:22;100519.27;;;9.11;78.87
51526;BME280;37611;51.794;21.590;2022-09-03T01:17:41;100518.92;;;9.04;78.98
51526;BME280;37611;51.794;21.590;2022-09-03T01:31:04;100521.13;;;9.05;78.96
51526;BME280;37611;51.794;21.590;2022-09-03T01:35:24;100518.75;;;9.08;78.88
51526;BME280;37611;51.794;21.590;2022-09-03T01:40:02;100523.45;;;9.11;78.49
51526;BME280;37611;51.794;21.590;2022-09-03T01:44:14;100522.08;;;9.10;78.13
51526;BME280;37611;51.794;21.590;2022-09-03T01:57:23;100512.70;;;9.01;78.22
51526;BME280;37611;51.794;21.590;2022-09-03T02:01:36;100511.74;;;9.02;78.77
51526;BME280;37611;51.794;21.590;2022-09-03T02:05:45;100508.33;;;9.03;78.83
51526;BME280;37611;51.794;21.590;2022-09-03T02:09:48;100502.88;;;9.02;79.25
51526;BME280;37611;51.794;21.590;2022-09-03T02:13:52;100502.66;;;8.92;79.22
51526;BME280;37611;51.794;21.590;2022-09-03T02:17:59;100502.98;;;8.77;79.41
51526;BME280;37611;51.794;21.590;2022-09-03T02:22:03;100504.56;;;8.63;79.59
51526;BME280;37611;51.794;21.590;2022-09-03T02:26:09;100502.53;;;8.51;79.26
51526;BME280;37611;51.794;21.590;2022-09-03T02:30:12;100496.23;;;8.45;79.29
51526;BME280;37611;51.794;21.590;2022-09-03T02:34:14;100494.42;;;8.44;79.79
51526;BME280;37611;51.794;21.590;2022-09-03T02:38:20;100492.42;;;8.45;80.07
51526;BME280;37611;51.794;21.590;2022-09-03T02:42:22;100497.49;;;8.51;80.44
51526;BME280;37611;51.794;21.590;2022-09-03T02:46:28;100498.94;;;8.55;80.05
51526;BME280;37611;51.794;21.590;2022-09-03T02:50:40;100505.04;;;8.59;79.92
51526;BME280;37611;51.794;21.590;2022-09-03T02:54:43;100506.48;;;8.61;79.73
51526;BME280;37611;51.794;21.590;2022-09-03T02:58:46;100507.55;;;8.56;79.67
51526;BME280;37611;51.794;21.590;2022-09-03T03:02:48;100502.12;;;8.48;79.66
51526;BME280;37611;51.794;21.590;2022-09-03T03:06:50;100499.59;;;8.43;80.14
51526;BME280;37611;51.794;21.590;2022-09-03T03:10:54;100497.49;;;8.43;80.35
51526;BME280;37611;51.794;21.590;2022-09-03T03:14:59;100500.05;;;8.46;80.59
51526;BME280;37611;51.794;21.590;2022-09-03T03:19:01;100499.06;;;8.49;80.67
51526;BME280;37611;51.794;21.590;2022-09-03T03:23:03;100500.92;;;8.48;80.48
51526;BME280;37611;51.794;21.590;2022-09-03T03:27:06;100506.66;;;8.50;80.07
51526;BME280;37611;51.794;21.590;2022-09-03T03:31:15;100502.50;;;8.48;79.90
51526;BME280;37611;51.794;21.590;2022-09-03T03:35:17;100503.70;;;8.44;80.12
51526;BME280;37611;51.794;21.590;2022-09-03T03:39:19;100505.77;;;8.40;81.00
51526;BME280;37611;51.794;21.590;2022-09-03T03:43:21;100504.29;;;8.39;80.72
51526;BME280;37611;51.794;21.590;2022-09-03T03:47:23;100501.41;;;8.44;80.83
51526;BME280;37611;51.794;21.590;2022-09-03T03:51:25;100498.13;;;8.48;80.53
51526;BME280;37611;51.794;21.590;2022-09-03T03:55:27;100501.73;;;8.53;80.16
51526;BME280;37611;51.794;21.590;2022-09-03T03:59:29;100500.14;;;8.55;79.86
51526;BME280;37611;51.794;21.590;2022-09-03T04:03:30;100507.52;;;8.56;79.64
51526;BME280;37611;51.794;21.590;2022-09-03T04:07:32;100509.01;;;8.57;79.50
51526;BME280;37611;51.794;21.590;2022-09-03T04:11:34;100513.04;;;8.57;79.29
51526;BME280;37611;51.794;21.590;2022-09-03T04:15:36;100508.71;;;8.61;79.72
51526;BME280;37611;51.794;21.590;2022-09-03T04:19:38;100506.17;;;8.69;79.94
51526;BME280;37611;51.794;21.590;2022-09-03T04:23:45;100501.91;;;8.78;80.00
51526;BME280;37611;51.794;21.590;2022-09-03T04:27:50;100505.86;;;8.87;79.49
51526;BME280;37611;51.794;21.590;2022-09-03T04:31:53;100512.92;;;8.97;79.24
51526;BME280;37611;51.794;21.590;2022-09-03T04:36:14;100514.70;;;9.04;78.94
51526;BME280;37611;51.794;21.590;2022-09-03T04:40:17;100512.44;;;9.13;78.83
51526;BME280;37611;51.794;21.590;2022-09-03T04:44:19;100502.06;;;9.26;78.52
51526;BME280;37611;51.794;21.590;2022-09-03T04:48:21;100501.38;;;9.48;78.19
51526;BME280;37611;51.794;21.590;2022-09-03T04:52:23;100502.93;;;9.80;77.92
51526;BME280;37611;51.794;21.590;2022-09-03T04:56:27;100502.31;;;10.15;77.34
51526;BME280;37611;51.794;21.590;2022-09-03T05:00:29;100508.95;;;10.48;76.60
51526;BME280;37611;51.794;21.590;2022-09-03T05:04:31;100512.59;;;10.78;75.69
51526;BME280;37611;51.794;21.590;2022-09-03T05:08:33;100511.07;;;11.07;74.98
51526;BME280;37611;51.794;21.590;2022-09-03T05:12:37;100511.73;;;11.39;74.16
51526;BME280;37611;51.794;21.590;2022-09-03T05:16:40;100515.64;;;11.68;73.18
51526;BME280;37611;51.794;21.590;2022-09-03T05:20:41;100518.23;;;11.91;72.38
51526;BME280;37611;51.794;21.590;2022-09-03T05:24:43;100516.33;;;12.20;72.23
51526;BME280;37611;51.794;21.590;2022-09-03T05:29:01;100521.18;;;12.47;71.62
51526;BME280;37611;51.794;21.590;2022-09-03T05:33:03;100519.86;;;12.76;70.66
51526;BME280;37611;51.794;21.590;2022-09-03T05:37:06;100516.92;;;13.04;69.83
51526;BME280;37611;51.794;21.590;2022-09-03T05:41:12;100512.35;;;13.33;69.74
51526;BME280;37611;51.794;21.590;2022-09-03T05:45:15;100513.23;;;13.61;68.36
51526;BME280;37611;51.794;21.590;2022-09-03T05:49:17;100514.76;;;13.80;67.72
51526;BME280;37611;51.794;21.590;2022-09-03T05:53:29;100512.65;;;14.03;67.66
51526;BME280;37611;51.794;21.590;2022-09-03T05:57:33;100510.71;;;14.25;67.01
51526;BME280;37611;51.794;21.590;2022-09-03T06:01:41;100512.33;;;14.44;66.57
51526;BME280;37611;51.794;21.590;2022-09-03T06:05:51;100509.39;;;14.65;65.99
51526;BME280;37611;51.794;21.590;2022-09-03T06:09:53;100506.59;;;14.86;65.63
51526;BME280;37611;51.794;21.590;2022-09-03T06:14:00;100512.43;;;15.07;64.33
51526;BME280;37611;51.794;21.590;2022-09-03T06:18:04;100514.08;;;15.25;63.64
51526;BME280;37611;51.794;21.590;2022-09-03T06:22:06;100517.98;;;15.50;63.19
51526;BME280;37611;51.794;21.590;2022-09-03T06:26:28;100516.45;;;15.72;61.11
51526;BME280;37611;51.794;21.590;2022-09-03T06:30:39;100514.83;;;15.90;61.35
51526;BME280;37611;51.794;21.590;2022-09-03T06:34:42;100516.35;;;16.07;61.58
51526;BME280;37611;51.794;21.590;2022-09-03T06:38:49;100516.93;;;16.30;61.00
51526;BME280;37611;51.794;21.590;2022-09-03T06:42:56;100521.91;;;16.48;60.49
51526;BME280;37611;51.794;21.590;2022-09-03T06:47:03;100523.77;;;16.70;60.33
51526;BME280;37611;51.794;21.590;2022-09-03T06:51:07;100527.05;;;16.97;59.17
51526;BME280;37611;51.794;21.590;2022-09-03T06:55:10;100532.86;;;17.16;58.59
51526;BME280;37611;51.794;21.590;2022-09-03T06:59:14;100531.48;;;17.29;56.99
51526;BME280;37611;51.794;21.590;2022-09-03T07:03:16;100531.83;;;17.33;56.62
51526;BME280;37611;51.794;21.590;2022-09-03T07:07:19;100524.08;;;17.40;56.15
51526;BME280;37611;51.794;21.590;2022-09-03T07:11:23;100528.09;;;17.49;55.36
51526;BME280;37611;51.794;21.590;2022-09-03T07:15:28;100525.64;;;17.59;55.01
51526;BME280;37611;51.794;21.590;2022-09-03T07:19:33;100521.04;;;17.68;54.10
51526;BME280;37611;51.794;21.590;2022-09-03T07:23:38;100521.35;;;17.84;53.84
51526;BME280;37611;51.794;21.590;2022-09-03T07:28:04;100528.44;;;18.02;51.87
51526;BME280;37611;51.794;21.590;2022-09-03T07:32:05;100535.09;;;18.10;51.19
51526;BME280;37611;51.794;21.590;2022-09-03T07:36:14;100540.64;;;18.28;50.14
51526;BME280;37611;51.794;21.590;2022-09-03T07:40:16;100542.32;;;18.49;50.14
51526;BME280;37611;51.794;21.590;2022-09-03T07:44:19;100539.14;;;18.67;46.66
51526;BME280;37611;51.794;21.590;2022-09-03T07:48:30;100535.95;;;18.72;47.10
51526;BME280;37611;51.794;21.590;2022-09-03T07:52:32;100532.23;;;19.01;46.86
51526;BME280;37611;51.794;21.590;2022-09-03T07:56:35;100534.87;;;19.23;45.07
51526;BME280;37611;51.794;21.590;2022-09-03T08:00:37;100533.41;;;19.32;42.56
51526;BME280;37611;51.794;21.590;2022-09-03T08:04:40;100530.71;;;19.42;42.45
51526;BME280;37611;51.794;21.590;2022-09-03T08:08:43;100535.10;;;19.58;41.29
51526;BME280;37611;51.794;21.590;2022-09-03T08:12:46;100533.42;;;19.83;41.63
51526;BME280;37611;51.794;21.590;2022-09-03T08:16:51;100533.86;;;20.18;40.97
51526;BME280;37611;51.794;21.590;2022-09-03T08:20:52;100541.62;;;20.41;39.35
51526;BME280;37611;51.794;21.590;2022-09-03T08:24:54;100541.10;;;20.48;37.97
51526;BME280;37611;51.794;21.590;2022-09-03T08:28:57;100538.78;;;20.49;37.37
51526;BME280;37611;51.794;21.590;2022-09-03T08:33:00;100542.30;;;20.47;36.83
51526;BME280;37611;51.794;21.590;2022-09-03T08:37:02;100538.83;;;20.56;36.61
51526;BME280;37611;51.794;21.590;2022-09-03T08:45:38;100540.89;;;20.70;35.71
51526;BME280;37611;51.794;21.590;2022-09-03T08:53:58;100537.96;;;21.30;35.73
51526;BME280;37611;51.794;21.590;2022-09-03T08:58:16;100531.92;;;21.46;35.27
51526;BME280;37611;51.794;21.590;2022-09-03T09:02:59;100534.12;;;21.45;33.41
51526;BME280;37611;51.794;21.590;2022-09-03T09:07:12;100530.32;;;21.62;33.70
51526;BME280;37611;51.794;21.590;2022-09-03T09:11:29;100525.27;;;21.66;33.45
51526;BME280;37611;51.794;21.590;2022-09-03T09:15:41;100528.98;;;21.74;32.68
51526;BME280;37611;51.794;21.590;2022-09-03T09:24:05;100518.70;;;21.77;32.81
51526;BME280;37611;51.794;21.590;2022-09-03T09:32:21;100520.03;;;21.73;31.67
51526;BME280;37611;51.794;21.590;2022-09-03T09:36:23;100518.36;;;21.80;31.89
51526;BME280;37611;51.794;21.590;2022-09-03T09:40:34;100526.77;;;21.84;31.50
51526;BME280;37611;51.794;21.590;2022-09-03T09:44:41;100525.36;;;21.82;31.35
51526;BME280;37611;51.794;21.590;2022-09-03T09:48:52;100525.05;;;21.80;31.74
51526;BME280;37611;51.794;21.590;2022-09-03T09:53:27;100519.48;;;21.95;32.39
51526;BME280;37611;51.794;21.590;2022-09-03T09:57:33;100508.95;;;21.82;31.19
51526;BME280;37611;51.794;21.590;2022-09-03T10:01:40;100513.42;;;21.81;31.61
51526;BME280;37611;51.794;21.590;2022-09-03T10:06:03;100512.52;;;21.70;32.01
51526;BME280;37611;51.794;21.590;2022-09-03T10:10:38;100523.01;;;21.60;31.69
51526;BME280;37611;51.794;21.590;2022-09-03T10:19:15;100520.29;;;21.71;32.33
51526;BME280;37611;51.794;21.590;2022-09-03T10:23:26;100506.20;;;21.75;32.50
51526;BME280;37611;51.794;21.590;2022-09-03T10:27:30;100507.97;;;21.75;31.80
51526;BME280;37611;51.794;21.590;2022-09-03T10:35:49;100505.71;;;21.39;31.14
51526;BME280;37611;51.794;21.590;2022-09-03T10:40:10;100498.67;;;21.35;31.81
51526;BME280;37611;51.794;21.590;2022-09-03T11:09:45;100489.66;;;21.31;30.83
51526;BME280;37611;51.794;21.590;2022-09-03T11:14:39;100487.60;;;21.25;31.27
51526;BME280;37611;51.794;21.590;2022-09-03T11:18:32;100483.58;;;21.28;31.56
51526;BME280;37611;51.794;21.590;2022-09-03T11:22:36;100483.62;;;21.35;31.60
51526;BME280;37611;51.794;21.590;2022-09-03T11:26:49;100486.49;;;21.32;31.16
51526;BME280;37611;51.794;21.590;2022-09-03T11:31:12;100477.25;;;21.25;31.76
51526;BME280;37611;51.794;21.590;2022-09-03T11:39:38;100482.75;;;21.36;31.08
51526;BME280;37611;51.794;21.590;2022-09-03T11:43:43;100484.64;;;21.34;30.69
51526;BME280;37611;51.794;21.590;2022-09-03T11:47:50;100479.22;;;21.35;30.84
51526;BME280;37611;51.794;21.590;2022-09-03T11:52:02;100468.41;;;21.30;30.61
51526;BME280;37611;51.794;21.590;2022-09-03T11:56:16;100463.59;;;21.36;31.18
51526;BME280;37611;51.794;21.590;2022-09-03T12:00:19;100461.77;;;21.37;30.82
51526;BME280;37611;51.794;21.590;2022-09-03T12:22:22;100439.33;;;21.79;30.63
51526;BME280;37611;51.794;21.590;2022-09-03T16:47:10;100372.22;;;19.17;33.51
51526;BME280;37611;51.794;21.590;2022-09-03T17:29:21;100398.85;;;17.26;40.60
51526;BME280;37611;51.794;21.590;2022-09-03T18:32:30;100433.04;;;15.12;46.72
51526;BME280;37611;51.794;21.590;2022-09-03T18:37:03;100433.67;;;15.00;46.86
51526;BME280;37611;51.794;21.590;2022-09-03T18:46:14;100446.33;;;14.84;47.66
51526;BME280;37611;51.794;21.590;2022-09-03T19:15:37;100459.66;;;14.01;51.15
51526;BME280;37611;51.794;21.590;2022-09-03T19:25:34;100467.17;;;13.42;54.40
51526;BME280;37611;51.794;21.590;2022-09-03T19:41:17;100463.91;;;13.15;54.81
51526;BME280;37611;51.794;21.590;2022-09-03T19:46:13;100465.82;;;13.10;55.62
51526;BME280;37611;51.794;21.590;2022-09-03T19:55:25;100476.23;;;13.06;56.60
51526;BME280;37611;51.794;21.590;2022-09-03T19:59:51;100480.16;;;13.04;55.69
51526;BME280;37611;51.794;21.590;2022-09-03T20:09:11;100488.06;;;12.93;55.90
51526;BME280;37611;51.794;21.590;2022-09-03T20:14:10;100489.66;;;12.92;55.55
51526;BME280;37611;51.794;21.590;2022-09-03T20:53:23;100500.02;;;12.62;56.83
51526;BME280;37611;51.794;21.590;2022-09-03T20:57:56;100503.00;;;12.55;56.54
51526;BME280;37611;51.794;21.590;2022-09-03T21:12:07;100510.23;;;12.35;57.56
51526;BME280;37611;51.794;21.590;2022-09-03T21:26:38;100509.57;;;12.10;59.94
51526;BME280;37611;51.794;21.590;2022-09-03T21:36:19;100519.67;;;12.00;60.38
51526;BME280;37611;51.794;21.590;2022-09-03T21:41:16;100515.95;;;11.91;61.22
51526;BME280;37611;51.794;21.590;2022-09-03T21:45:45;100515.00;;;11.85;60.68
51526;BME280;37611;51.794;21.590;2022-09-03T21:50:57;100517.80;;;11.79;61.08
51526;BME280;37611;51.794;21.590;2022-09-03T22:00:42;100515.27;;;11.65;63.00
51526;BME280;37611;51.794;21.590;2022-09-03T22:05:12;100515.31;;;11.61;62.39
51526;BME280;37611;51.794;21.590;2022-09-03T22:14:54;100520.66;;;11.56;63.59
51526;BME280;37611;51.794;21.590;2022-09-03T22:19:25;100517.60;;;11.57;63.79
51526;BME280;37611;51.794;21.590;2022-09-03T22:49:07;100533.82;;;11.15;66.08
51526;BME280;37611;51.794;21.590;2022-09-03T23:09:06;100534.17;;;11.28;68.28
51526;BME280;37611;51.794;21.590;2022-09-03T23:13:18;100539.22;;;11.25;68.81
51526;BME280;37611;51.794;21.590;2022-09-03T23:17:49;100546.38;;;11.20;69.39
51526;BME280;37611;51.794;21.590;2022-09-03T23:26:43;100553.30;;;11.05;69.59
51526;BME280;37611;51.794;21.590;2022-09-03T23:36:07;100555.48;;;10.91;69.62
51526;BME280;37611;51.794;21.590;2022-09-03T23:54:22;100571.56;;;10.70;71.69
